Time;durP1;ratioP1;P1;durP2;ratioP2;P2;SDS_P1;SDS_P2;PMS_P1;PMS_P2;Temp;Humidity;BMP_temperature;BMP_pressure;BME280_temperature;BME280_humidity;BME280_pressure;Samples;Min_cycle;Max_cycle;Signal;HPM_P1;HPM_P2
2023/02/27 00:01:24;;;;;;;1.70;1.60;;;4.10;49.80;;;;;;6320912;28;20951;-67
2023/02/27 00:04:28;;;;;;;1.83;1.73;;;4.10;49.80;;;;;;6325870;28;20963;-66
2023/02/27 00:07:32;;;;;;;2.23;2.03;;;4.10;49.60;;;;;;6318565;28;20487;-65
2023/02/27 00:10:36;;;;;;;1.87;1.77;;;4.10;49.70;;;;;;6323082;28;20508;-66
2023/02/27 00:13:39;;;;;;;1.77;1.67;;;4.10;49.10;;;;;;6323810;28;20472;-66
2023/02/27 00:16:43;;;;;;;1.70;1.60;;;4.10;48.90;;;;;;6323983;28;20827;-66
2023/02/27 00:19:46;;;;;;;2.23;2.00;;;4.20;49.60;;;;;;6324149;28;20471;-66
2023/02/27 00:22:50;;;;;;;2.17;2.00;;;4.10;48.90;;;;;;6324072;28;20479;-66
2023/02/27 00:25:54;;;;;;;1.90;1.80;;;4.20;49.00;;;;;;6321973;28;20943;-64
2023/02/27 00:28:57;;;;;;;3.87;2.70;;;4.20;48.80;;;;;;6323589;28;20537;-64
2023/02/27 00:32:01;;;;;;;2.80;2.60;;;4.20;48.80;;;;;;6321825;28;20464;-65
2023/02/27 00:35:04;;;;;;;2.77;2.57;;;4.10;48.90;;;;;;6324351;28;20468;-65
2023/02/27 00:38:09;;;;;;;2.93;2.73;;;4.10;49.10;;;;;;6324229;28;20963;-64
2023/02/27 00:41:12;;;;;;;3.37;2.40;;;4.10;49.50;;;;;;6324759;28;20821;-64
2023/02/27 00:44:16;;;;;;;3.63;2.77;;;4.10;49.70;;;;;;6324365;28;20464;-64
2023/02/27 00:47:19;;;;;;;3.70;3.10;;;4.10;49.90;;;;;;6324731;28;20481;-64
2023/02/27 00:50:22;;;;;;;2.70;2.50;;;4.20;50.50;;;;;;6323897;28;20487;-65
2023/02/27 00:53:27;;;;;;;2.47;2.23;;;4.20;50.90;;;;;;6324427;28;20472;-65
2023/02/27 00:56:31;;;;;;;3.43;3.10;;;4.20;51.70;;;;;;6324484;28;21086;-65
2023/02/27 00:59:34;;;;;;;2.73;2.53;;;4.10;51.90;;;;;;6324085;28;20488;-65
2023/02/27 01:02:37;;;;;;;2.73;2.53;;;4.10;52.50;;;;;;6324167;28;20469;-65
2023/02/27 01:05:41;;;;;;;2.90;2.70;;;4.10;52.80;;;;;;6324407;28;20962;-65
2023/02/27 01:08:45;;;;;;;4.33;2.73;;;4.00;52.90;;;;;;6323975;28;20468;-65
2023/02/27 01:11:49;;;;;;;2.07;1.97;;;4.00;53.50;;;;;;6324094;28;20471;-65
2023/02/27 01:14:52;;;;;;;4.27;3.87;;;4.00;53.80;;;;;;6324210;28;20471;-65
2023/02/27 01:17:55;;;;;;;2.37;2.17;;;4.00;53.90;;;;;;6324062;28;20476;-64
2023/02/27 01:20:58;;;;;;;3.10;2.70;;;4.00;54.10;;;;;;6324270;28;20479;-64
2023/02/27 01:24:03;;;;;;;2.37;2.13;;;4.00;54.50;;;;;;6324420;28;20459;-64
2023/02/27 01:27:06;;;;;;;2.60;2.40;;;4.00;54.70;;;;;;6324317;28;20440;-64
2023/02/27 01:30:11;;;;;;;2.13;2.03;;;3.90;54.70;;;;;;6323705;28;20436;-64
2023/02/27 01:33:14;;;;;;;4.10;3.70;;;3.90;54.90;;;;;;6324171;28;20469;-64
2023/02/27 01:36:18;;;;;;;2.90;2.50;;;3.90;55.30;;;;;;6324079;28;20464;-64
2023/02/27 01:39:22;;;;;;;2.67;2.47;;;3.80;55.60;;;;;;6324080;28;20467;-65
2023/02/27 01:42:27;;;;;;;2.60;2.40;;;3.80;56.00;;;;;;6327637;28;20464;-65
2023/02/27 01:45:33;;;;;;;4.97;2.83;;;3.80;56.00;;;;;;6328812;28;20460;-65
2023/02/27 01:48:39;;;;;;;4.00;2.90;;;3.80;56.20;;;;;;6328000;28;20465;-64
2023/02/27 01:51:46;;;;;;;5.60;3.60;;;3.70;56.20;;;;;;6327991;28;20985;-63
2023/02/27 01:54:50;;;;;;;4.20;3.23;;;3.70;56.40;;;;;;6328417;28;20471;-64
2023/02/27 01:57:54;;;;;;;3.27;3.07;;;3.70;56.50;;;;;;6327884;28;20472;-63
2023/02/27 02:00:57;;;;;;;6.60;4.40;;;3.60;56.80;;;;;;6327743;28;20969;-63
2023/02/27 02:04:05;;;;;;;3.00;2.80;;;3.50;57.20;;;;;;6328055;28;20479;-63
2023/02/27 02:07:11;;;;;;;3.20;2.93;;;3.50;57.20;;;;;;6333089;28;20464;-63
2023/02/27 02:10:17;;;;;;;2.70;2.50;;;3.50;56.90;;;;;;6332665;28;20471;-63
2023/02/27 02:13:21;;;;;;;21.90;12.77;;;3.40;56.80;;;;;;6328925;28;20475;-63
2023/02/27 02:16:42;;;;;;;10.10;7.50;;;3.40;57.60;;;;;;6328025;28;20464;-62
2023/02/27 02:20:21;;;;;;;4.30;3.20;;;3.30;58.40;;;;;;6327753;28;20559;-61
2023/02/27 02:24:00;;;;;;;2.70;2.50;;;3.30;58.70;;;;;;6327535;28;20951;-61
2023/02/27 02:27:17;;;;;;;3.23;2.97;;;3.30;58.70;;;;;;6324718;28;20777;-62
2023/02/27 02:30:59;;;;;;;4.43;4.13;;;3.20;59.10;;;;;;6327364;28;20452;-62
2023/02/27 02:34:42;;;;;;;3.10;2.90;;;3.10;59.30;;;;;;6326924;28;20468;-61
2023/02/27 02:41:42;;;;;;;3.80;3.50;;;3.00;59.90;;;;;;6300190;27;20548;-59
2023/02/27 02:44:58;;;;;;;4.17;2.90;;;2.90;60.50;;;;;;6296323;28;20465;-62
2023/02/27 02:48:09;;;;;;;4.03;2.83;;;2.90;61.00;;;;;;6295514;28;20454;-65
2023/02/27 02:51:20;;;;;;;2.53;2.30;;;2.90;60.90;;;;;;6271757;28;20822;-62
2023/02/27 02:54:31;;;;;;;2.97;2.77;;;2.90;61.40;;;;;;6271349;28;20459;-62
2023/02/27 02:57:40;;;;;;;2.70;2.50;;;2.90;61.70;;;;;;6271319;28;20981;-64
2023/02/27 03:00:48;;;;;;;2.80;2.60;;;2.80;62.50;;;;;;6271008;28;20471;-63
2023/02/27 03:03:56;;;;;;;3.93;3.17;;;2.80;62.80;;;;;;6271309;28;20497;-65
2023/02/27 03:07:05;;;;;;;3.43;3.13;;;2.70;63.70;;;;;;6271024;28;20966;-64
2023/02/27 03:10:12;;;;;;;2.83;2.63;;;2.70;64.40;;;;;;6271755;28;20470;-66
2023/02/27 03:13:21;;;;;;;3.23;2.97;;;2.70;64.70;;;;;;6271781;28;20494;-66
2023/02/27 03:16:32;;;;;;;2.73;2.53;;;2.70;64.90;;;;;;6271203;28;20964;-61
2023/02/27 03:19:41;;;;;;;2.80;2.60;;;2.60;65.50;;;;;;6270840;28;20907;-61
2023/02/27 03:22:49;;;;;;;3.40;3.10;;;2.60;65.60;;;;;;6266532;28;20483;-61
2023/02/27 03:25:54;;;;;;;4.03;3.43;;;2.60;66.10;;;;;;6270667;28;20485;-61
2023/02/27 03:29:04;;;;;;;2.73;2.53;;;2.50;66.70;;;;;;6270488;28;20961;-66
2023/02/27 03:32:13;;;;;;;6.97;3.30;;;2.50;67.00;;;;;;6270808;28;20478;-65
2023/02/27 03:35:16;;;;;;;6.03;3.83;;;2.50;67.40;;;;;;6270293;28;20474;-65
2023/02/27 03:38:27;;;;;;;7.27;4.20;;;2.60;67.90;;;;;;6270521;28;20489;-61
2023/02/27 03:41:35;;;;;;;9.63;5.37;;;2.60;67.60;;;;;;6270019;28;20479;-60
2023/02/27 03:44:50;;;;;;;3.67;3.37;;;2.60;67.60;;;;;;6270082;28;20482;-63
2023/02/27 03:47:54;;;;;;;4.37;3.40;;;2.70;68.00;;;;;;6271558;28;20528;-63
2023/02/27 03:50:57;;;;;;;5.13;3.60;;;2.70;68.30;;;;;;6268671;28;20459;-64
2023/02/27 03:54:06;;;;;;;3.70;2.90;;;2.70;68.30;;;;;;6253227;28;20875;-61
2023/02/27 03:57:12;;;;;;;4.03;3.30;;;2.70;68.30;;;;;;6253562;28;20454;-64
2023/02/27 04:00:20;;;;;;;3.33;3.00;;;2.70;68.80;;;;;;6253644;28;20466;-64
2023/02/27 04:03:23;;;;;;;3.30;3.10;;;2.70;68.90;;;;;;6253749;28;20485;-63
2023/02/27 04:10:29;;;;;;;4.43;3.27;;;2.70;69.10;;;;;;6253186;28;20537;-62
2023/02/27 04:13:54;;;;;;;3.20;2.87;;;2.80;69.20;;;;;;6253050;28;20477;-62
2023/02/27 04:17:14;;;;;;;4.00;3.10;;;2.70;68.90;;;;;;6253232;28;20475;-62
2023/02/27 04:20:29;;;;;;;3.40;3.10;;;2.70;68.90;;;;;;6253372;28;20490;-62
2023/02/27 04:23:38;;;;;;;4.00;3.70;;;2.70;68.30;;;;;;6253828;28;20482;-65
2023/02/27 04:26:46;;;;;;;4.90;3.10;;;2.70;68.30;;;;;;6253401;28;20606;-62
2023/02/27 04:29:55;;;;;;;4.07;3.77;;;2.60;69.80;;;;;;6248114;28;20478;-62
2023/02/27 04:33:07;;;;;;;4.83;3.30;;;2.60;69.50;;;;;;6253323;28;20748;-62
2023/02/27 04:36:16;;;;;;;5.43;3.50;;;2.60;70.00;;;;;;6253197;28;20427;-61
2023/02/27 04:39:24;;;;;;;3.53;3.00;;;2.60;70.40;;;;;;6253236;28;20460;-63
2023/02/27 04:42:32;;;;;;;6.60;3.30;;;2.80;70.50;;;;;;6252875;28;20467;-62
2023/02/27 04:45:40;;;;;;;5.07;3.60;;;2.80;70.50;;;;;;6252658;28;20462;-62
2023/02/27 04:48:52;;;;;;;4.13;3.73;;;2.80;70.40;;;;;;6252221;28;20798;-62
2023/02/27 04:52:00;;;;;;;3.97;3.63;;;2.90;70.30;;;;;;6252821;28;20485;-62
2023/02/27 04:55:08;;;;;;;5.37;4.17;;;2.90;70.30;;;;;;6252131;28;20982;-63
2023/02/27 04:58:13;;;;;;;4.50;3.60;;;2.90;70.30;;;;;;6252335;28;20498;-65
2023/02/27 05:01:21;;;;;;;8.73;3.90;;;3.00;70.80;;;;;;6252702;28;20475;-61
2023/02/27 05:04:30;;;;;;;5.60;3.83;;;3.00;70.80;;;;;;6251588;28;20974;-61
2023/02/27 05:07:37;;;;;;;5.43;3.93;;;3.00;71.00;;;;;;6251686;28;20479;-61
2023/02/27 05:10:46;;;;;;;5.20;3.77;;;2.90;71.20;;;;;;6252001;28;20467;-61
2023/02/27 05:13:54;;;;;;;4.13;3.80;;;3.00;71.50;;;;;;6251673;28;20781;-61
2023/02/27 05:17:04;;;;;;;7.10;3.93;;;3.00;71.40;;;;;;6251345;28;20920;-61
2023/02/27 05:20:13;;;;;;;7.23;4.57;;;3.00;71.20;;;;;;6251252;28;20483;-61
2023/02/27 05:23:22;;;;;;;8.33;5.47;;;3.10;71.30;;;;;;6251451;28;20475;-62
2023/02/27 05:26:34;;;;;;;9.97;5.80;;;3.10;70.90;;;;;;6251305;28;20479;-62
2023/02/27 05:29:45;;;;;;;7.47;5.50;;;3.00;70.90;;;;;;6251357;28;20478;-62
2023/02/27 05:32:53;;;;;;;6.77;6.17;;;3.00;70.10;;;;;;6252083;28;20479;-66
2023/02/27 05:36:05;;;;;;;10.60;8.90;;;3.10;70.00;;;;;;6251319;28;20455;-64
2023/02/27 05:39:11;;;;;;;9.87;6.13;;;3.10;70.10;;;;;;6251273;28;20482;-66
2023/02/27 05:42:19;;;;;;;7.33;4.53;;;3.10;70.30;;;;;;6253975;28;20475;-64
2023/02/27 05:45:28;;;;;;;7.97;4.80;;;3.10;70.50;;;;;;6251509;28;20471;-64
2023/02/27 05:48:36;;;;;;;5.03;4.53;;;3.10;70.90;;;;;;6252218;28;20481;-62
2023/02/27 05:51:44;;;;;;;6.40;3.97;;;3.10;71.40;;;;;;6251186;28;20471;-62
2023/02/27 05:54:51;;;;;;;4.00;3.63;;;3.10;71.20;;;;;;6250761;28;20805;-63
2023/02/27 05:58:01;;;;;;;4.53;3.10;;;3.10;70.60;;;;;;6250677;28;20463;-63
2023/02/27 06:01:06;;;;;;;5.03;4.63;;;3.00;70.20;;;;;;6249663;28;20498;-63
2023/02/27 06:04:10;;;;;;;8.23;4.10;;;3.10;70.00;;;;;;6249925;28;20985;-63
2023/02/27 06:07:15;;;;;;;9.57;5.10;;;3.10;69.80;;;;;;6249700;28;20467;-63
2023/02/27 06:10:20;;;;;;;6.80;4.60;;;3.10;69.80;;;;;;6250345;28;20466;-62
2023/02/27 06:13:24;;;;;;;9.77;5.30;;;3.10;69.80;;;;;;6251250;28;20769;-63
2023/02/27 06:16:28;;;;;;;11.43;9.17;;;3.10;69.70;;;;;;6251415;28;20814;-63
2023/02/27 06:19:31;;;;;;;16.43;14.30;;;3.10;69.70;;;;;;6250465;28;20475;-63
2023/02/27 06:22:36;;;;;;;19.63;11.50;;;3.10;69.60;;;;;;6250362;28;20490;-64
2023/02/27 06:25:41;;;;;;;12.83;10.40;;;3.20;69.60;;;;;;6250487;28;20486;-64
2023/02/27 06:28:44;;;;;;;21.13;14.60;;;3.20;69.70;;;;;;6250170;28;20549;-64
2023/02/27 06:31:47;;;;;;;18.60;14.00;;;3.20;70.10;;;;;;6251795;28;20474;-64
2023/02/27 06:34:50;;;;;;;19.37;13.50;;;3.20;70.20;;;;;;6250818;28;20467;-64
2023/02/27 06:37:55;;;;;;;18.53;13.80;;;3.20;69.90;;;;;;6250087;28;20479;-63
2023/02/27 06:40:58;;;;;;;18.07;11.10;;;3.30;68.90;;;;;;6249408;28;20479;-64
2023/02/27 06:44:02;;;;;;;7.47;6.00;;;3.30;68.80;;;;;;6249119;28;20482;-63
2023/02/27 06:47:05;;;;;;;18.77;12.83;;;3.40;68.60;;;;;;6249464;28;20479;-64
2023/02/27 06:50:11;;;;;;;28.43;16.40;;;3.40;68.50;;;;;;6249773;28;20474;-64
2023/02/27 06:53:15;;;;;;;13.23;7.30;;;3.50;67.80;;;;;;6250024;28;20463;-64
2023/02/27 06:56:18;;;;;;;6.70;5.00;;;3.60;67.50;;;;;;6249975;28;20470;-65
2023/02/27 06:59:22;;;;;;;7.67;6.07;;;3.70;67.40;;;;;;6250378;28;20810;-64
2023/02/27 07:02:25;;;;;;;8.33;7.30;;;3.70;67.20;;;;;;6250096;28;20490;-64
2023/02/27 07:05:28;;;;;;;9.33;7.30;;;3.70;66.40;;;;;;6250249;28;20808;-64
2023/02/27 07:08:34;;;;;;;6.30;5.40;;;3.50;66.20;;;;;;6249882;28;20506;-64
2023/02/27 07:11:37;;;;;;;6.40;5.80;;;3.50;67.10;;;;;;6250434;28;20471;-64
2023/02/27 07:14:41;;;;;;;6.60;5.90;;;3.50;65.60;;;;;;6249740;28;20470;-64
2023/02/27 07:17:44;;;;;;;8.53;6.37;;;3.40;65.90;;;;;;6250252;28;20482;-64
2023/02/27 07:20:50;;;;;;;10.97;6.40;;;3.40;66.40;;;;;;6252900;28;20913;-63
2023/02/27 07:23:55;;;;;;;9.43;6.20;;;3.60;66.30;;;;;;6250438;28;20467;-65
2023/02/27 07:26:58;;;;;;;5.97;5.00;;;3.70;64.60;;;;;;6252422;28;20527;-64
2023/02/27 07:30:01;;;;;;;5.67;4.40;;;3.80;64.10;;;;;;6254592;28;20447;-63
2023/02/27 07:33:05;;;;;;;5.00;4.10;;;3.90;61.60;;;;;;6254636;28;20434;-63
2023/02/27 07:36:08;;;;;;;4.67;4.27;;;4.10;60.90;;;;;;6254925;28;20443;-63
2023/02/27 07:39:13;;;;;;;4.87;4.37;;;4.30;60.80;;;;;;6254250;28;20831;-64
2023/02/27 07:42:16;;;;;;;5.40;3.80;;;4.60;60.60;;;;;;6254017;28;20483;-64
2023/02/27 07:45:21;;;;;;;3.90;3.60;;;4.80;58.40;;;;;;6254474;28;20769;-64
2023/02/27 07:48:24;;;;;;;3.50;3.30;;;5.10;57.50;;;;;;6254466;28;20490;-64
2023/02/27 07:51:28;;;;;;;4.70;3.87;;;5.50;56.50;;;;;;6253239;28;20485;-65
2023/02/27 07:54:32;;;;;;;3.67;3.37;;;5.90;55.60;;;;;;6253592;28;20462;-64
2023/02/27 07:57:37;;;;;;;4.27;3.60;;;6.20;54.40;;;;;;6253436;28;20894;-65
2023/02/27 08:00:41;;;;;;;5.50;3.70;;;6.40;53.30;;;;;;6253498;28;20482;-64
2023/02/27 08:03:44;;;;;;;4.40;3.10;;;6.70;52.40;;;;;;6252342;28;20481;-63
2023/02/27 08:06:47;;;;;;;3.53;3.23;;;7.00;51.40;;;;;;6253753;28;20474;-64
2023/02/27 08:09:52;;;;;;;4.13;3.17;;;7.10;50.70;;;;;;6253454;28;20486;-64
2023/02/27 08:12:56;;;;;;;9.87;3.83;;;7.30;49.60;;;;;;6251193;28;20467;-64
2023/02/27 08:15:59;;;;;;;5.87;3.30;;;7.50;48.50;;;;;;6253749;28;20835;-64
2023/02/27 08:19:02;;;;;;;6.13;3.50;;;7.50;47.00;;;;;;6254131;28;20481;-65
2023/02/27 08:22:05;;;;;;;4.60;3.40;;;7.70;47.50;;;;;;6253710;28;20479;-64
2023/02/27 08:25:11;;;;;;;5.37;3.43;;;7.90;46.00;;;;;;6253360;28;20487;-64
2023/02/27 08:28:14;;;;;;;5.40;3.90;;;8.20;45.30;;;;;;6253369;28;20478;-63
2023/02/27 08:31:17;;;;;;;5.10;4.03;;;8.60;44.90;;;;;;6252424;28;20478;-65
2023/02/27 08:34:21;;;;;;;3.77;3.37;;;9.10;44.20;;;;;;6251279;28;20471;-65
2023/02/27 08:37:24;;;;;;;4.00;3.60;;;9.30;42.40;;;;;;6252090;28;20935;-65
2023/02/27 08:40:29;;;;;;;3.80;3.13;;;9.30;41.40;;;;;;6260006;28;20807;-64
2023/02/27 08:43:32;;;;;;;5.57;3.20;;;9.20;41.60;;;;;;6256520;28;20471;-65
2023/02/27 08:46:35;;;;;;;4.20;3.07;;;9.20;41.40;;;;;;6251887;28;20819;-63
2023/02/27 08:49:39;;;;;;;3.57;3.07;;;9.10;41.50;;;;;;6252033;28;20478;-63
2023/02/27 08:52:42;;;;;;;3.83;3.20;;;9.10;41.40;;;;;;6252050;28;20789;-63
2023/02/27 08:55:49;;;;;;;4.23;3.53;;;9.30;41.10;;;;;;6252030;28;20474;-63
2023/02/27 08:58:52;;;;;;;4.60;3.23;;;9.20;41.60;;;;;;6251687;28;20471;-63
2023/02/27 09:01:55;;;;;;;6.03;3.40;;;9.70;42.30;;;;;;6239381;28;20482;-63
2023/02/27 09:04:59;;;;;;;4.27;3.43;;;10.70;40.80;;;;;;6235962;28;20480;-63
2023/02/27 09:08:02;;;;;;;4.17;3.80;;;11.60;38.20;;;;;;6251275;28;20489;-64
2023/02/27 09:11:07;;;;;;;5.33;4.03;;;12.10;38.10;;;;;;6238544;28;20554;-63
2023/02/27 09:14:10;;;;;;;5.17;3.83;;;12.00;36.80;;;;;;6228862;28;20475;-64
2023/02/27 09:17:14;;;;;;;4.07;3.77;;;11.90;37.20;;;;;;6227079;28;20480;-62
2023/02/27 09:20:17;;;;;;;3.50;3.20;;;12.00;36.90;;;;;;6227200;28;20482;-63
2023/02/27 09:23:21;;;;;;;4.33;3.80;;;11.70;36.00;;;;;;6226871;28;20494;-64
2023/02/27 09:26:26;;;;;;;5.30;3.23;;;11.80;35.50;;;;;;6226625;28;21058;-64
2023/02/27 09:29:47;;;;;;;4.90;4.27;;;11.80;35.70;;;;;;6226644;28;20480;-62
2023/02/27 09:32:51;;;;;;;4.33;3.50;;;11.30;36.60;;;;;;6227623;28;20490;-63
2023/02/27 09:35:54;;;;;;;3.50;3.20;;;11.80;36.20;;;;;;6233528;28;20982;-63
2023/02/27 09:38:59;;;;;;;5.07;3.10;;;12.40;34.60;;;;;;6250425;28;21024;-62
2023/02/27 09:42:08;;;;;;;3.80;3.40;;;14.20;33.60;;;;;;6251129;28;20480;-63
2023/02/27 09:45:19;;;;;;;6.70;4.17;;;15.80;30.50;;;;;;6275749;28;20418;-62
2023/02/27 09:48:29;;;;;;;4.73;3.77;;;15.90;30.00;;;;;;6274575;28;20798;-64
2023/02/27 09:51:33;;;;;;;4.30;3.90;;;15.70;29.50;;;;;;6275557;28;20459;-64
2023/02/27 09:54:36;;;;;;;5.27;4.27;;;15.40;29.90;;;;;;6275463;28;20458;-63
2023/02/27 09:57:48;;;;;;;7.80;4.67;;;15.80;30.00;;;;;;6274011;28;20509;-61
2023/02/27 10:00:56;;;;;;;5.00;4.50;;;15.00;30.00;;;;;;6273495;28;20779;-61
2023/02/27 10:04:18;;;;;;;4.50;3.90;;;13.70;31.50;;;;;;6268531;28;20466;-61
2023/02/27 10:07:26;;;;;;;4.60;4.20;;;12.70;31.60;;;;;;6274261;28;20510;-61
2023/02/27 10:10:34;;;;;;;9.77;4.73;;;11.60;33.50;;;;;;6249773;28;20463;-64
2023/02/27 10:13:52;;;;;;;4.20;3.90;;;11.10;35.10;;;;;;6249683;28;20467;-60
2023/02/27 10:16:57;;;;;;;6.53;3.97;;;10.50;34.30;;;;;;6269553;28;20531;-60
2023/02/27 10:20:08;;;;;;;9.00;6.67;;;9.90;36.10;;;;;;6274505;28;20474;-60
2023/02/27 10:23:15;;;;;;;7.70;5.37;;;9.40;37.10;;;;;;6273318;28;20485;-60
2023/02/27 10:26:21;;;;;;;5.30;4.40;;;9.20;38.90;;;;;;6270219;28;20465;-61
2023/02/27 10:29:29;;;;;;;5.27;4.77;;;9.00;40.00;;;;;;6273335;28;20485;-60
2023/02/27 10:32:36;;;;;;;5.50;4.70;;;8.80;40.60;;;;;;6270712;28;20466;-60
2023/02/27 10:35:42;;;;;;;4.33;4.03;;;8.80;41.00;;;;;;6273869;28;20485;-60
2023/02/27 10:38:50;;;;;;;4.47;4.07;;;8.50;41.50;;;;;;6273594;28;20498;-60
2023/02/27 10:41:55;;;;;;;6.23;3.93;;;8.20;40.90;;;;;;6273945;28;20470;-60
2023/02/27 10:45:01;;;;;;;5.70;4.10;;;8.00;39.50;;;;;;6275603;28;20469;-60
2023/02/27 10:48:05;;;;;;;5.57;5.07;;;7.80;43.20;;;;;;6275791;28;20991;-60
2023/02/27 10:51:25;;;;;;;6.07;5.03;;;7.40;44.70;;;;;;6274698;28;20442;-61
2023/02/27 10:54:28;;;;;;;7.53;5.70;;;7.30;45.00;;;;;;6274733;28;20485;-61
2023/02/27 10:57:40;;;;;;;5.80;4.30;;;7.00;45.40;;;;;;6274854;28;20477;-62
2023/02/27 11:00:53;;;;;;;5.23;4.60;;;7.30;45.90;;;;;;6276051;28;20466;-61
2023/02/27 11:03:56;;;;;;;8.40;4.90;;;8.00;44.90;;;;;;6254560;28;20471;-61
2023/02/27 11:07:03;;;;;;;4.40;3.83;;;8.80;43.00;;;;;;6253887;28;20955;-62
2023/02/27 11:10:17;;;;;;;4.40;4.00;;;9.10;41.20;;;;;;6261727;28;20469;-62
2023/02/27 11:13:24;;;;;;;5.57;4.40;;;9.10;40.70;;;;;;6278805;28;20545;-62
2023/02/27 11:16:28;;;;;;;4.60;4.20;;;9.00;40.80;;;;;;6278817;28;20937;-63
2023/02/27 11:19:34;;;;;;;5.10;4.27;;;8.80;40.40;;;;;;6278823;28;20469;-62
2023/02/27 11:22:37;;;;;;;5.43;3.87;;;8.80;40.80;;;;;;6279320;28;20481;-62
2023/02/27 11:25:42;;;;;;;5.50;4.67;;;9.10;40.40;;;;;;6278572;28;20481;-62
2023/02/27 11:28:45;;;;;;;5.20;4.70;;;9.30;40.00;;;;;;6279074;28;20477;-62
2023/02/27 11:31:53;;;;;;;5.80;5.20;;;9.20;40.10;;;;;;6279499;28;20477;-62
2023/02/27 11:34:57;;;;;;;5.10;4.07;;;8.90;40.40;;;;;;6278741;28;20462;-62
2023/02/27 11:38:02;;;;;;;6.00;4.30;;;8.50;40.70;;;;;;6278166;28;20848;-63
2023/02/27 11:41:08;;;;;;;4.23;3.87;;;8.50;41.00;;;;;;6278630;28;20474;-63
2023/02/27 11:44:17;;;;;;;6.27;4.07;;;8.90;40.30;;;;;;6279130;28;20486;-63
2023/02/27 11:47:43;;;;;;;4.70;4.30;;;9.40;39.60;;;;;;6278865;28;20478;-62
2023/02/27 11:51:01;;;;;;;7.20;5.00;;;9.70;38.60;;;;;;6278718;28;20465;-62
2023/02/27 11:54:10;;;;;;;5.53;4.20;;;9.80;39.20;;;;;;6278178;28;20533;-63
2023/02/27 11:57:22;;;;;;;4.43;4.03;;;10.40;37.70;;;;;;6277574;28;20427;-63
2023/02/27 12:00:31;;;;;;;7.80;6.13;;;10.80;36.20;;;;;;6278784;28;20474;-64
2023/02/27 12:03:47;;;;;;;6.77;4.40;;;10.80;36.10;;;;;;6278291;28;20476;-64
2023/02/27 12:06:55;;;;;;;5.77;5.17;;;11.70;35.20;;;;;;6278337;28;20474;-62
2023/02/27 12:10:05;;;;;;;4.57;4.17;;;11.60;33.70;;;;;;6273267;28;20820;-62
2023/02/27 12:13:14;;;;;;;4.67;4.27;;;11.80;34.20;;;;;;6276723;28;20462;-61
2023/02/27 12:16:24;;;;;;;4.13;3.67;;;11.40;33.80;;;;;;6274497;28;20811;-63
2023/02/27 12:19:36;;;;;;;3.90;3.20;;;11.50;34.00;;;;;;6278187;28;20476;-62
2023/02/27 12:22:44;;;;;;;7.10;3.43;;;11.20;34.00;;;;;;6278048;28;20474;-63
2023/02/27 12:25:52;;;;;;;3.73;3.30;;;10.30;34.20;;;;;;6278067;28;20989;-63
2023/02/27 12:29:00;;;;;;;3.63;3.43;;;9.10;37.50;;;;;;6277970;28;21088;-62
2023/02/27 12:32:14;;;;;;;4.40;3.83;;;8.60;38.50;;;;;;6277553;28;20470;-65
2023/02/27 12:35:23;;;;;;;3.93;3.50;;;8.40;39.20;;;;;;6277509;28;20470;-63
2023/02/27 12:38:26;;;;;;;4.33;3.93;;;8.10;39.60;;;;;;6277802;28;20580;-63
2023/02/27 12:41:48;;;;;;;6.80;3.77;;;7.90;40.40;;;;;;6278336;28;20466;-63
2023/02/27 12:45:18;;;;;;;4.93;4.47;;;7.10;40.50;;;;;;6277320;28;20878;-63
2023/02/27 12:48:35;;;;;;;5.50;4.33;;;6.50;42.20;;;;;;6277524;28;20466;-63
2023/02/27 12:51:48;;;;;;;6.00;3.80;;;6.70;42.70;;;;;;6274190;28;20501;-63
2023/02/27 12:55:02;;;;;;;3.80;3.40;;;6.90;42.50;;;;;;6278966;28;20470;-63
2023/02/27 12:58:22;;;;;;;4.53;4.20;;;7.00;42.20;;;;;;6276770;28;20478;-62
2023/02/27 13:01:37;;;;;;;4.40;4.00;;;6.70;42.00;;;;;;6276659;28;20462;-63
2023/02/27 13:04:46;;;;;;;3.63;3.30;;;6.80;42.50;;;;;;6276086;28;20470;-63
2023/02/27 13:07:57;;;;;;;4.17;3.77;;;6.90;42.40;;;;;;6274723;28;20474;-62
2023/02/27 13:11:07;;;;;;;3.70;3.40;;;7.00;42.60;;;;;;6274125;28;20466;-62
2023/02/27 13:14:23;;;;;;;5.10;3.73;;;6.60;42.30;;;;;;6275178;28;20462;-62
2023/02/27 13:17:38;;;;;;;6.70;3.60;;;6.60;43.20;;;;;;6272888;28;20474;-62
2023/02/27 13:20:49;;;;;;;4.37;3.97;;;6.60;42.50;;;;;;6274495;28;20980;-62
2023/02/27 13:24:05;;;;;;;4.50;4.10;;;6.60;42.90;;;;;;6274882;28;20485;-62
2023/02/27 13:27:19;;;;;;;3.77;3.33;;;7.20;42.30;;;;;;6275825;28;20458;-63
2023/02/27 13:30:27;;;;;;;5.30;3.60;;;8.10;41.20;;;;;;6274232;28;20462;-62
2023/02/27 13:33:36;;;;;;;6.43;3.57;;;8.80;39.20;;;;;;6274507;28;20466;-62
2023/02/27 13:36:43;;;;;;;4.73;4.23;;;9.90;38.40;;;;;;6276179;28;20516;-63
2023/02/27 13:40:00;;;;;;;4.40;3.73;;;11.40;36.00;;;;;;6275294;28;20493;-62
2023/02/27 13:43:26;;;;;;;3.40;3.07;;;12.40;32.70;;;;;;6275703;28;20474;-62
2023/02/27 13:46:30;;;;;;;4.17;3.57;;;12.00;32.70;;;;;;6275377;28;20973;-62
2023/02/27 13:49:43;;;;;;;3.93;3.50;;;11.80;33.10;;;;;;6275294;28;20558;-62
2023/02/27 13:52:46;;;;;;;2.90;2.70;;;12.80;32.40;;;;;;6275607;28;20466;-64
2023/02/27 13:55:53;;;;;;;4.77;2.87;;;14.60;31.40;;;;;;6275792;28;20476;-64
2023/02/27 13:59:09;;;;;;;4.17;3.37;;;15.80;28.80;;;;;;6275627;28;20774;-64
2023/02/27 14:02:31;;;;;;;4.20;3.87;;;15.20;27.90;;;;;;6275618;28;20477;-64
2023/02/27 14:05:38;;;;;;;4.70;4.30;;;13.70;28.50;;;;;;6275464;28;20486;-63
2023/02/27 14:08:49;;;;;;;4.40;3.90;;;13.10;29.90;;;;;;6275032;28;20470;-63
2023/02/27 14:11:57;;;;;;;3.13;2.93;;;12.30;30.50;;;;;;6253739;28;20482;-62
2023/02/27 14:15:02;;;;;;;3.30;3.00;;;11.10;32.00;;;;;;6250797;28;20471;-62
2023/02/27 14:18:43;;;;;;;6.40;4.40;;;10.80;33.00;;;;;;6250177;28;20471;-62
2023/02/27 14:21:56;;;;;;;4.97;4.00;;;10.00;33.90;;;;;;6251027;28;20463;-62
2023/02/27 14:25:05;;;;;;;4.70;3.50;;;9.60;35.70;;;;;;6250652;28;20488;-62
2023/02/27 14:28:25;;;;;;;3.60;3.40;;;9.10;36.00;;;;;;6250433;28;20479;-62
2023/02/27 14:31:31;;;;;;;5.27;3.77;;;8.20;37.20;;;;;;6250530;28;20471;-62
2023/02/27 14:34:37;;;;;;;4.23;3.80;;;8.20;38.20;;;;;;6250240;28;20738;-63
2023/02/27 14:37:40;;;;;;;4.67;4.20;;;8.10;38.40;;;;;;6250672;28;20475;-62
2023/02/27 14:41:07;;;;;;;5.60;4.67;;;8.10;38.80;;;;;;6263023;28;20473;-62
2023/02/27 14:44:20;;;;;;;4.20;3.70;;;8.00;38.60;;;;;;6274595;28;20968;-62
2023/02/27 14:47:29;;;;;;;4.30;3.97;;;7.40;39.10;;;;;;6275133;28;20484;-62
2023/02/27 14:50:36;;;;;;;5.30;4.10;;;7.20;39.80;;;;;;6274729;28;20470;-62
2023/02/27 14:53:39;;;;;;;4.10;3.70;;;7.10;40.20;;;;;;6275146;28;21000;-62
2023/02/27 14:56:53;;;;;;;4.53;4.13;;;7.10;40.10;;;;;;6274676;28;20478;-62
2023/02/27 14:59:58;;;;;;;4.07;3.73;;;7.10;40.80;;;;;;6276173;28;20473;-65
2023/02/27 15:03:11;;;;;;;8.40;4.50;;;7.00;40.10;;;;;;6270018;28;20474;-64
2023/02/27 15:06:17;;;;;;;5.50;4.40;;;7.10;40.20;;;;;;6274488;28;20477;-63
2023/02/27 15:09:23;;;;;;;6.47;4.40;;;6.90;40.30;;;;;;6273481;28;20581;-63
2023/02/27 15:12:28;;;;;;;6.40;4.40;;;6.60;40.90;;;;;;6273650;28;20552;-61
2023/02/27 15:15:32;;;;;;;4.10;3.80;;;6.50;41.40;;;;;;6273975;28;20465;-63
2023/02/27 15:18:40;;;;;;;4.80;4.40;;;6.40;41.80;;;;;;6274158;28;20466;-62
2023/02/27 15:21:46;;;;;;;4.20;3.80;;;6.30;42.10;;;;;;6275319;28;20489;-62
2023/02/27 15:24:49;;;;;;;4.40;4.00;;;6.30;42.10;;;;;;6275031;28;20474;-61
2023/02/27 15:27:53;;;;;;;4.73;4.37;;;6.20;42.20;;;;;;6273483;28;20786;-63
2023/02/27 15:30:57;;;;;;;5.80;4.20;;;6.00;42.80;;;;;;6272945;28;20474;-63
2023/02/27 15:34:02;;;;;;;4.70;4.30;;;5.50;43.30;;;;;;6270932;28;20838;-64
2023/02/27 15:37:06;;;;;;;4.50;3.53;;;5.20;44.00;;;;;;6272393;28;20481;-64
2023/02/27 15:40:19;;;;;;;5.70;3.70;;;5.30;44.40;;;;;;6272783;28;20477;-62
2023/02/27 15:43:23;;;;;;;5.97;5.03;;;5.30;44.10;;;;;;6271462;28;20608;-63
2023/02/27 15:46:30;;;;;;;4.13;3.73;;;5.10;44.80;;;;;;6269740;28;20493;-62
2023/02/27 15:49:33;;;;;;;4.17;3.83;;;4.90;45.70;;;;;;6276959;28;20560;-62
2023/02/27 15:52:42;;;;;;;4.10;3.70;;;4.50;45.60;;;;;;6276837;28;20488;-63
2023/02/27 15:55:50;;;;;;;4.30;3.53;;;4.20;46.60;;;;;;6274688;28;20490;-62
2023/02/27 15:58:56;;;;;;;3.83;3.40;;;4.10;47.00;;;;;;6274966;28;20474;-63
2023/02/27 16:02:05;;;;;;;5.37;4.07;;;4.20;47.20;;;;;;6277805;28;20476;-62
2023/02/27 16:05:15;;;;;;;4.20;3.73;;;4.30;47.40;;;;;;6277640;28;20485;-62
2023/02/27 16:08:20;;;;;;;8.60;4.57;;;4.40;47.50;;;;;;6274010;28;20832;-61
2023/02/27 16:11:26;;;;;;;7.17;3.10;;;4.30;47.40;;;;;;6273371;28;20481;-62
2023/02/27 16:14:37;;;;;;;6.77;4.27;;;4.30;47.30;;;;;;6276287;28;20479;-62
2023/02/27 16:17:53;;;;;;;4.43;3.70;;;4.30;47.40;;;;;;6277404;28;20482;-65
2023/02/27 16:21:10;;;;;;;3.93;3.50;;;4.30;47.40;;;;;;6277605;28;20488;-65
2023/02/27 16:24:21;;;;;;;4.87;4.43;;;4.30;47.30;;;;;;6277695;28;20430;-65
2023/02/27 16:27:26;;;;;;;3.60;3.30;;;4.10;47.70;;;;;;6272508;28;20462;-65
2023/02/27 16:30:30;;;;;;;3.60;3.30;;;4.00;48.00;;;;;;6256412;28;20474;-64
2023/02/27 16:33:37;;;;;;;6.70;4.10;;;3.90;48.30;;;;;;6252277;28;20552;-64
2023/02/27 16:36:43;;;;;;;4.40;4.00;;;3.90;48.70;;;;;;6255227;28;20463;-64